Have a Safe July 4th! 

Flight Track Log - Related Links

Times and Time Zones

All times are in EDT time to prevent confusion due to time zone crossing. See the N1ER flight status page for this flight to view local times or setup timezone preferences in your user account.

Time Position Orientation Groundspeed Altitude Reporting Facility
EDT Latitude Longitude Course Direction KTS MPH feet Rate Location/Type
Sat 01:04:31 PM 31.2508 -85.2619 122° Southeast 134 154 8,400  Level Jacksonville Center
Sat 01:05:38 PM 31.2347 -85.2322 122° Southeast 107 123 9,200 496 Climbing Jacksonville Center
Sat 01:06:44 PM 31.2144 -85.1906 120° Southeast 135 155 9,500 142 Climbing Jacksonville Center
Sat 01:07:45 PM 31.1925 -85.1439 119° Southeast 166 191 9,500  Level Jacksonville Center
Sat 01:08:40 PM 31.1722 -85.1044 121° Southeast 169 194 9,500 -52 Level Jacksonville Center
Sat 01:09:40 PM 31.1458 -85.0553 122° Southeast 166 191 9,400 -52 Descending Jacksonville Center
Sat 01:10:35 PM 31.1258 -85.0136 119° Southeast 163 188 9,400 50 Level Jacksonville Center
Sat 01:11:41 PM 31.1014 -84.9644 120° Southeast 160 184 9,500 52 Climbing Jacksonville Center
Sat 01:12:30 PM 31.0833 -84.9278 120° Southeast 161 185 9,500  Level Jacksonville Center
Sat 01:13:30 PM 31.0631 -84.8836 118° Southeast 162 186 9,500  Level Jacksonville Center
Sat 01:39:52 PM 30.5692 -83.6406 121° Southeast 257 296 9,500  Level Jacksonville Center
Sat 01:40:00 PM 30.4628 -83.7698 121° Southeast  Level FlightAware Approximate
Sat 01:40:52 PM 30.5675 -83.5875 92° East 203 234 9,500  Level Jacksonville Center
Sat 01:41:00 PM 30.4410 -83.7271 121° Southeast  Level FlightAware Approximate
Sat 01:41:52 PM 30.5781 -83.5294 78° East 169 194 9,400  Level Jacksonville Center
Sat 01:42:00 PM 30.4192 -83.6846 121° Southeast  Level FlightAware Approximate
Sat 01:42:52 PM 30.5722 -83.4764 97° East 157 181 9,400  Level Jacksonville Center
Sat 01:43:00 PM 30.3973 -83.6420 121° Southeast  Level FlightAware Approximate
Sat 01:43:51 PM 30.5661 -83.4233 98° East 157 181 9,400  Level Jacksonville Center
Sat 01:44:00 PM 30.3755 -83.5995 121° Southeast  Level FlightAware Approximate
Sat 01:44:52 PM 30.5350 -83.3869 135° Southeast 152 175 9,400  Level Jacksonville Center
Sat 01:45:52 PM 30.5036 -83.3458 132° Southeast 157 181 9,400  Level Jacksonville Center
Sat 01:46:52 PM 30.4767 -83.3072 129° Southeast 157 181 9,400 50 Level Jacksonville Center
Sat 01:47:52 PM 30.4456 -83.2661 131° Southeast 157 181 9,500  Climbing Jacksonville Center
Sat 01:48:52 PM 30.4186 -83.2322 133° Southeast 162 186 9,400 -50 Descending Jacksonville Center
Sat 01:49:52 PM 30.3872 -83.1936 133° Southeast 162 186 9,400  Level Jacksonville Center
Sat 01:50:52 PM 30.3603 -83.1525 127° Southeast 162 186 9,400  Level Jacksonville Center
Sat 01:51:52 PM 30.3289 -83.1117 132° Southeast 162 186 9,400  Level Jacksonville Center
Sat 01:52:52 PM 30.2978 -83.0731 133° Southeast 162 186 9,400  Level Jacksonville Center
Sat 01:53:52 PM 30.2644 -83.0344 135° Southeast 162 186 9,400  Level Jacksonville Center
Sat 01:54:52 PM 30.2353 -82.9983 133° Southeast 162 186 9,400  Level Jacksonville Center
Sat 01:55:52 PM 30.2058 -82.9575 130° Southeast 162 186 9,400 -33 Level Jacksonville Center
Sat 01:57:52 PM 30.1433 -82.8806 133° Southeast 162 186 9,300 -200 Descending Jacksonville Center
Sat 01:58:52 PM 30.1100 -82.8372 132° Southeast 167 192 8,800 -600 Descending Jacksonville Center
Sat 01:59:52 PM 30.0744 -82.7989 137° Southeast 174 200 8,100 -816 Descending Jacksonville Center
Sat 02:00:57 PM 30.0283 -82.7511 138° Southeast 181 208 7,100 -850 Descending Jacksonville Center
Sat 02:01:52 PM 29.9992 -82.7175 135° Southeast 184 212 6,400 -985 Descending Jacksonville Center
Sat 02:02:04 PM 29.9867 -82.7056 140° Southeast 185 213 6,000 -1,000 Descending Jacksonville Center
Sat 02:02:52 PM 29.9678 -82.6744 125° Southeast 184 212 5,400 -885 Descending Jacksonville Center
Sat 02:03:05 PM 29.9531 -82.6647 150° Southeast 173 199 5,100 -800 Descending Jacksonville Center
Sat 02:03:52 PM 29.9322 -82.6433 138° Southeast 173 199 4,600 -689 Descending Jacksonville Center
Sat 02:04:06 PM 29.9197 -82.6361 153° Southeast 147 169 4,400 -600 Descending Jacksonville Center
Sat 02:04:52 PM 29.9031 -82.6147 132° Southeast 159 183 4,000 -590 Descending Jacksonville Center
Sat 02:05:07 PM 29.8903 -82.6050 147° Southeast 140 161 3,800 -600 Descending Jacksonville Center
Sat 02:05:52 PM 29.8736 -82.5836 132° Southeast 147 169 3,400 -590 Descending Jacksonville Center
Sat 02:06:08 PM 29.8653 -82.5692 124° Southeast 145 167 3,200 -500 Descending Jacksonville Center
Sat 02:06:52 PM 29.8528 -82.5453 121° Southeast 141 162 2,900 -484 Descending Jacksonville Center
Sat 02:07:10 PM 29.8422 -82.5286 126° Southeast 148 170 2,700 -500 Descending Jacksonville Center
Sat 02:07:52 PM 29.8297 -82.5072 124° Southeast 141 162 2,400 -448 Descending Jacksonville Center
Sat 02:08:17 PM 29.8150 -82.4881 132° Southeast 147 169 2,200 -500 Descending Jacksonville Center
Sat 02:08:52 PM 29.8064 -82.4664 115° Southeast 141 162 1,900 -295 Descending Jacksonville Center
Sat 02:09:18 PM 29.7939 -82.4497 131° Southeast 145 167 1,900 -100 Level Jacksonville Center
Sat 02:09:52 PM 29.7856 -82.4308 117° Southeast 146 168 1,800  Descending Jacksonville Center
Sat 02:10:13 PM 29.7792 -82.4164 117° Southeast 138 159 1,900  Climbing Jacksonville Center
Sat 02:10:52 PM 29.7856 -82.4308 297° West 146 168 1,800 98 Descending Jacksonville Center
Sat 02:11:14 PM 29.7664 -82.3758 112° Southeast 134 154 2,000 -135 Climbing Jacksonville Center
Sat 02:12:21 PM 29.7622 -82.3231 95° East 137 158 1,600 -362 Descending Jacksonville Center
Sat 02:13:10 PM 29.7494 -82.2992 122° Southeast 128 147 1,300 -466 Descending Jacksonville Center
Sat 02:14:17 PM 29.7264 -82.2636 127° Southeast 117 135 700 -203 Descending Jacksonville Center
Sat 02:16:37 PM 29.6847 -82.2900 116° Southeast 99 114 600 39 Descending Jacksonville Center
Sat 02:16:49 PM 29.6806 -82.2950 226° Southwest 96 110 800 822 Climbing Jacksonville Center
Sat 02:17:50 PM 29.6514 -82.2903 172° South 107 123 1,600 836 Climbing Jacksonville Center
Sat 02:18:51 PM 29.6408 -82.2569 110° East 117 135 2,500 443 Climbing Jacksonville Center
Sat 02:19:52 PM 29.6239 -82.2092 112° Southeast 161 185 2,500  Level Jacksonville Center
Sat 02:20:53 PM 29.6047 -82.1664 117° Southeast 150 173 2,500  Level Jacksonville Center
Sat 02:21:54 PM 29.5856 -82.1211 116° Southeast 151 174 2,500  Level Jacksonville Center
Sat 02:22:55 PM 29.5667 -82.0783 117° Southeast 151 174 2,500  Level Jacksonville Center
Sat 02:23:56 PM 29.5475 -82.0403 120° Southeast 144 166 2,500  Level Jacksonville Center
Sat 02:24:57 PM 29.5286 -81.9975 117° Southeast 153 176 2,500  Level Jacksonville Center
Sat 02:25:58 PM 29.5072 -81.9500 117° Southeast 150 173 2,500  Level Jacksonville Center
Sat 02:26:59 PM 29.4839 -81.9097 124° Southeast 152 175 2,500  Level Jacksonville Center
Sat 02:28:00 PM 29.4669 -81.8692 116° Southeast 140 161 2,500  Level Jacksonville Center
Sat 02:29:02 PM 29.4478 -81.8289 119° Southeast 139 160 2,500  Level Jacksonville Center
Sat 02:30:08 PM 29.4267 -81.7839 118° Southeast 140 161 2,500  Level Jacksonville Center
Sat 02:31:09 PM 29.4053 -81.7458 123° Southeast 140 161 2,500  Level Jacksonville Center
Sat 02:32:05 PM 29.3883 -81.7081 117° Southeast 145 167 2,500  Level Jacksonville Center
Sat 02:33:06 PM 29.3692 -81.6678 119° Southeast 147 169 2,500  Level Jacksonville Center
Sat 02:34:06 PM 29.3542 -81.6250 112° Southeast 147 169 2,500  Level Jacksonville Center
Sat 02:35:19 PM 29.3369 -81.5706 110° East 150 173 2,500  Level Jacksonville Center
Sat 02:36:19 PM 29.3197 -81.5256 114° Southeast 150 173 2,500  Level Jacksonville Center
Sat 02:37:08 PM 29.3111 -81.4922 106° East 150 173 2,500 55 Level Jacksonville Center
Sat 02:38:09 PM 29.2958 -81.4425 109° East 152 175 2,600 45 Climbing Jacksonville Center
Sat 02:39:22 PM 29.2847 -81.3878 103° East 151 174 2,600  Level Jacksonville Center
Sat 02:40:11 PM 29.2886 -81.3497 83° East 156 180 2,600  Level Jacksonville Center
Sat 02:41:17 PM 29.2878 -81.2925 91° East 153 176 2,600  Level Jacksonville Center
Sat 02:42:18 PM 29.2872 -81.2425 91° East 154 177 2,600  Level Jacksonville Center
Sat 02:43:19 PM 29.2908 -81.1925 85° East 157 181 2,600 -49 Level Jacksonville Center
Sat 02:44:20 PM 29.2922 -81.1450 88° East 133 153 2,500 -344 Descending Jacksonville Center
Sat 02:45:21 PM 29.2894 -81.1044 94° East 131 151 1,900 -569 Descending Jacksonville Center
Sat 02:46:16 PM 29.2889 -81.0664 91° East 131 151 1,400 -466 Descending Jacksonville Center
Sat 02:47:17 PM 29.2739 -81.0406 124° Southeast 119 137 1,000 -197 Descending Jacksonville Center
Sat 02:48:18 PM 29.2444 -81.0219 151° Southeast 116 133 1,000  Level Jacksonville Center
Sat 02:49:31 PM 29.2108 -81.0106 164° South 98 113 1,000 -173 Level Jacksonville Center
Sat 02:50:37 PM 29.1925 -81.0300 223° Southwest 78 90 600 -364 Descending Jacksonville Center
Sat 02:52:00 PM 29.1799 -81.0581 283° West  Level Estimated
Sat 02:59:00 PM 29.1799 -81.0581 115° Southeast  Level Estimated
Sat 03:00:00 PM 29.1799 -81.0581 295° West  Level Estimated
Sat 03:01:00 PM 29.1799 -81.0581 295° West  Level Estimated
Sat 03:02:00 PM 29.1799 -81.0581 295° West  Level Estimated

Login

Don't have an account? Register now (free) for customized features, flight alerts, and more!